createdAt,value
2022-11-04T00:03:30.068Z,101339.56
2022-11-04T00:08:25.802Z,101332.88
2022-11-04T00:13:20.366Z,101200.56
2022-11-04T00:18:13.536Z,101351.59
2022-11-04T00:23:24.345Z,101331.38
2022-11-04T00:28:35.724Z,101343.88
2022-11-04T00:33:30.322Z,101315.13
2022-11-04T00:38:24.174Z,101316.66
2022-11-04T00:43:17.432Z,101301.94
2022-11-04T00:48:11.264Z,101217.66
2022-11-04T00:53:06.435Z,101242.16
2022-11-04T00:58:00.462Z,101334.22
2022-11-04T01:02:54.639Z,101329.63
2022-11-04T01:07:47.920Z,101243.84
2022-11-04T01:12:42.465Z,101305.47
2022-11-04T01:17:35.699Z,101244.69
2022-11-04T01:22:28.910Z,101325.91
2022-11-04T01:27:22.259Z,101188.13
2022-11-04T01:32:16.821Z,101304.53
2022-11-04T01:37:10.106Z,101306.56
2022-11-04T01:47:01.734Z,101290.75
2022-11-04T01:52:01.027Z,101278.72
2022-11-04T01:56:55.846Z,101267.66
2022-11-04T02:01:49.456Z,101231.06
2022-11-04T02:06:42.906Z,101194.28
2022-11-04T02:11:55.131Z,101237.28
2022-11-04T02:16:50.816Z,101229.19
2022-11-04T02:22:22.609Z,101200.31
2022-11-04T02:27:32.314Z,101119.78
2022-11-04T02:32:41.203Z,101234.19
2022-11-04T02:37:41.682Z,101236.19
2022-11-04T02:42:39.055Z,101231.94
2022-11-04T02:47:35.016Z,101222.72
2022-11-04T02:52:34.886Z,101121.44
2022-11-04T02:57:33.000Z,101230.78
2022-11-04T03:02:30.734Z,101213.06
2022-11-04T03:07:30.582Z,101129.75
2022-11-04T03:12:29.136Z,101205.38
2022-11-04T03:17:28.147Z,101173.31
2022-11-04T03:22:24.820Z,101182.16
2022-11-04T03:27:25.513Z,101219.59
2022-11-04T03:32:25.669Z,101063.66
2022-11-04T03:37:19.416Z,101181.41
2022-11-04T03:42:21.354Z,101212.53
2022-11-04T03:47:16.225Z,101175.47
2022-11-04T03:52:09.668Z,101194.28
2022-11-04T03:57:29.355Z,101183.94
2022-11-04T04:02:28.767Z,101192.13
2022-11-04T04:07:32.936Z,101105.50
2022-11-04T04:12:32.605Z,101210.47
2022-11-04T04:17:32.291Z,101197.97
2022-11-04T04:22:30.110Z,101182.16
2022-11-04T04:27:33.563Z,101209.44
2022-11-04T04:32:31.128Z,101108.94
2022-11-04T04:37:26.686Z,101219.13
2022-11-04T04:42:43.641Z,101158.06
2022-11-04T04:47:45.040Z,101215.22
2022-11-04T04:52:41.475Z,101206.84
2022-11-04T04:57:34.743Z,101170.63
2022-11-04T05:02:28.475Z,101181.78
2022-11-04T05:07:23.208Z,101204.97
2022-11-04T05:12:16.388Z,101214.72
2022-11-04T05:17:09.497Z,101210.72
2022-11-04T05:22:05.949Z,101168.06
2022-11-04T05:27:01.008Z,101020.13
2022-11-04T05:31:54.417Z,101242.84
2022-11-04T05:36:50.258Z,101239.41
2022-11-04T05:41:43.597Z,101125.16
2022-11-04T05:46:38.187Z,101238.84
2022-11-04T05:51:32.371Z,101221.66
2022-11-04T05:56:25.644Z,101236.38
2022-11-04T06:01:31.850Z,101235.22
2022-11-04T06:06:28.549Z,101237.66
2022-11-04T06:11:23.808Z,101120.94
2022-11-04T06:16:17.140Z,101231.78
2022-11-04T06:21:21.431Z,101194.44
2022-11-04T06:26:18.211Z,101239.53
2022-11-04T06:31:14.173Z,101183.03
2022-11-04T06:36:09.188Z,101149.47
2022-11-04T06:41:02.664Z,101133.50
2022-11-04T06:45:58.248Z,101231.44
2022-11-04T06:50:51.577Z,101230.34
2022-11-04T06:55:45.424Z,101233.31
2022-11-04T07:00:43.890Z,101218.03
2022-11-04T07:05:38.829Z,101000.00
2022-11-04T07:10:34.070Z,101040.47
2022-11-04T07:15:29.647Z,101186.81
2022-11-04T07:20:32.224Z,101197.22
2022-11-04T07:25:26.929Z,101056.78
2022-11-04T07:30:22.297Z,101068.78
2022-11-04T07:35:16.064Z,101102.56
2022-11-04T07:40:10.996Z,101130.75
2022-11-04T07:45:06.947Z,101110.59
2022-11-04T07:50:04.142Z,101155.91
2022-11-04T07:55:02.073Z,100910.03
2022-11-04T07:59:55.792Z,100965.50
2022-11-04T08:04:57.660Z,101169.81
2022-11-04T08:09:51.017Z,101011.56
2022-11-04T08:14:44.509Z,101166.25
2022-11-04T08:19:38.001Z,100979.44
2022-11-04T08:24:33.634Z,101104.22
2022-11-04T08:29:27.522Z,100900.22
2022-11-04T08:34:21.082Z,101100.63
2022-11-04T08:39:17.880Z,100949.34
2022-11-04T08:44:31.989Z,101035.69
2022-11-04T08:49:36.993Z,101016.41
2022-11-04T08:54:44.284Z,100934.91
2022-11-04T08:59:48.453Z,101086.84
2022-11-04T09:04:42.516Z,101006.75
2022-11-04T09:09:36.092Z,101045.00
2022-11-04T09:14:29.893Z,101061.84
2022-11-04T09:19:24.908Z,101037.03
2022-11-04T09:24:21.324Z,100908.25
2022-11-04T09:29:18.260Z,100988.72
2022-11-04T09:34:24.183Z,100891.34
2022-11-04T09:39:24.658Z,100832.47
2022-11-04T09:44:27.320Z,101034.13
2022-11-04T09:49:22.539Z,101004.38
2022-11-04T09:54:24.267Z,100974.59
2022-11-04T09:59:34.152Z,100902.03
2022-11-04T10:04:39.145Z,100923.31
2022-11-04T10:09:50.469Z,101023.19
2022-11-04T10:15:04.700Z,100888.97
2022-11-04T10:20:41.074Z,100985.06
2022-11-04T10:25:51.153Z,100832.53
2022-11-04T10:31:22.963Z,100912.38
2022-11-04T10:36:19.552Z,100897.31
2022-11-04T10:41:31.100Z,100949.13
2022-11-04T10:46:38.748Z,100944.66
2022-11-04T10:51:32.532Z,100779.50
2022-11-04T10:56:38.350Z,100927.75
2022-11-04T11:01:33.946Z,100848.84
2022-11-04T11:06:31.814Z,100739.34
2022-11-04T11:11:45.610Z,100751.59
2022-11-04T11:16:39.415Z,100901.25
2022-11-04T11:21:48.100Z,100835.59
2022-11-04T11:26:50.176Z,100776.22
2022-11-04T11:31:44.170Z,100793.09
2022-11-04T11:36:48.890Z,100716.69
2022-11-04T11:41:57.507Z,100701.50
2022-11-04T11:46:55.813Z,100696.72
2022-11-04T11:51:51.178Z,100836.56
2022-11-04T12:02:31.822Z,100822.97
2022-11-04T12:13:18.277Z,100668.59
2022-11-04T12:18:37.075Z,100700.81
2022-11-04T12:23:41.439Z,100816.19
2022-11-04T12:28:47.734Z,100598.72
2022-11-04T12:33:59.949Z,100749.94
2022-11-04T12:39:19.981Z,100623.50
2022-11-04T12:44:28.464Z,100752.06
2022-11-04T12:49:53.174Z,100637.06
2022-11-04T12:55:32.791Z,100777.84
2022-11-04T13:00:35.269Z,100581.19
2022-11-04T13:05:47.278Z,100721.47
2022-11-04T13:10:49.910Z,100700.66
2022-11-04T13:16:01.054Z,100645.28
2022-11-04T13:21:02.791Z,100745.56
2022-11-04T13:26:03.938Z,100625.78
2022-11-04T13:31:05.370Z,100737.31
2022-11-04T13:36:05.687Z,100742.94
2022-11-04T13:41:17.427Z,100708.72
2022-11-04T13:46:23.917Z,100725.28
2022-11-04T13:51:20.029Z,100721.97
2022-11-04T13:56:33.957Z,100750.25
2022-11-04T14:01:31.561Z,100736.53
2022-11-04T14:06:51.738Z,100722.00
2022-11-04T14:12:18.048Z,100683.66
2022-11-04T14:17:49.830Z,100691.06
2022-11-04T14:22:54.581Z,100701.66
2022-11-04T14:27:50.738Z,100728.59
2022-11-04T14:32:44.210Z,100537.28
2022-11-04T14:37:42.085Z,100586.03
2022-11-04T14:43:01.636Z,100630.16
2022-11-04T14:48:00.151Z,100702.72
2022-11-04T14:52:59.681Z,100648.28
2022-11-04T14:57:56.752Z,100581.66
2022-11-04T15:02:59.962Z,100556.16
2022-11-04T15:07:56.387Z,100637.81
2022-11-04T15:12:55.365Z,100601.69
2022-11-04T15:17:48.854Z,100627.63
2022-11-04T15:22:56.507Z,100690.81
2022-11-04T15:27:50.801Z,100570.75
2022-11-04T15:33:02.519Z,100518.59
2022-11-04T15:37:59.645Z,100552.97
2022-11-04T15:42:55.161Z,100485.47
2022-11-04T15:47:50.781Z,100634.81
2022-11-04T15:52:53.356Z,100523.91
2022-11-04T15:57:47.264Z,100484.50
2022-11-04T16:02:56.462Z,100615.56
2022-11-04T16:08:44.008Z,100627.56
2022-11-04T16:13:46.535Z,100565.22
2022-11-04T16:18:50.438Z,100533.91
2022-11-04T16:24:08.100Z,100563.03
2022-11-04T16:29:18.906Z,100505.97
2022-11-04T16:34:15.432Z,100641.34
2022-11-04T16:40:42.642Z,100694.25
2022-11-04T16:46:19.730Z,100536.31
2022-11-04T16:51:30.018Z,100658.09
2022-11-04T16:56:31.516Z,100566.63
2022-11-04T17:01:30.863Z,100501.41
2022-11-04T17:06:25.584Z,100588.38
2022-11-04T17:11:19.235Z,100539.53
2022-11-04T17:16:17.444Z,100688.31
2022-11-04T17:21:15.174Z,100702.16
2022-11-04T17:26:08.702Z,100451.97
2022-11-04T17:31:31.613Z,100673.00
2022-11-04T17:36:25.972Z,100494.88
2022-11-04T17:41:39.760Z,100520.69
2022-11-04T17:46:37.999Z,100561.72
2022-11-04T17:51:32.007Z,100602.03
2022-11-04T17:56:25.792Z,100644.81
2022-11-04T18:01:22.206Z,100578.38
2022-11-04T18:06:29.147Z,100526.31
2022-11-04T18:12:11.428Z,100424.81
2022-11-04T18:17:08.236Z,100530.19
2022-11-04T18:22:29.612Z,100424.56
2022-11-04T18:28:04.318Z,100497.53
2022-11-04T18:34:16.744Z,100462.44
2022-11-04T18:39:25.889Z,100478.22
2022-11-04T18:44:22.553Z,100583.03
2022-11-04T18:49:17.979Z,100617.25
2022-11-04T18:54:15.554Z,100490.84
2022-11-04T18:59:15.303Z,100659.25
2022-11-04T19:04:27.390Z,100523.75
2022-11-04T19:14:44.612Z,100575.88
2022-11-04T19:19:39.604Z,100524.50
2022-11-04T19:24:37.215Z,100587.09
2022-11-04T19:29:52.759Z,100656.19
2022-11-04T19:35:26.394Z,100655.34
2022-11-04T19:40:26.546Z,100551.28
2022-11-04T19:45:48.871Z,100620.53
2022-11-04T19:50:52.389Z,100621.13
2022-11-04T19:56:07.896Z,100680.31
2022-11-04T20:01:25.349Z,100433.06
2022-11-04T20:06:27.585Z,100504.88
2022-11-04T20:11:53.520Z,100493.91
2022-11-04T20:18:27.127Z,100459.59
2022-11-04T20:24:18.990Z,100433.06
2022-11-04T20:36:15.948Z,100524.31
2022-11-04T20:47:24.596Z,100447.25
2022-11-04T20:52:29.939Z,100656.25
2022-11-04T20:57:35.667Z,100618.16
2022-11-04T21:02:52.952Z,100462.25
2022-11-04T21:07:54.792Z,100469.84
2022-11-04T21:20:13.523Z,100459.13
2022-11-04T21:31:40.410Z,100566.66
2022-11-04T21:43:54.729Z,100677.00
2022-11-04T21:50:21.626Z,100465.06
2022-11-04T22:01:29.706Z,100408.41
2022-11-04T22:12:08.861Z,100677.41
2022-11-04T22:17:29.358Z,100612.66
2022-11-04T22:22:31.952Z,100610.53
2022-11-04T22:28:32.140Z,100657.75
2022-11-04T22:34:57.654Z,100529.97
2022-11-04T22:39:49.261Z,100400.22
2022-11-04T22:45:03.890Z,100522.31
2022-11-04T22:50:01.608Z,100374.16
2022-11-04T22:54:55.940Z,100415.75
2022-11-04T23:00:12.458Z,100425.03
2022-11-04T23:05:27.265Z,100554.63
2022-11-04T23:17:11.467Z,100389.59
2022-11-04T23:22:43.064Z,100496.25
2022-11-04T23:28:13.333Z,100423.34
2022-11-04T23:33:16.413Z,100435.72
2022-11-04T23:38:18.395Z,100502.50
2022-11-04T23:43:24.317Z,100371.44
2022-11-04T23:49:05.841Z,100528.78
2022-11-04T23:55:24.731Z,100487.34
